Time;durP1;ratioP1;P1;durP2;ratioP2;P2;SDS_P1;SDS_P2;PMS_P1;PMS_P2;Temp;Humidity;BMP_temperature;BMP_pressure;BME280_temperature;BME280_humidity;BME280_pressure;Samples;Min_cycle;Max_cycle;Signal;HPM_P1;HPM_P2
2022/04/08 00:01:24;;;;;;;1.85;1.65;;;;;;;11.89;51.59;93667.69;5036782;28;20248;-61
2022/04/08 00:03:49;;;;;;;1.80;1.70;;;;;;;11.69;53.41;93650.91;5034364;28;20537;-60
2022/04/08 00:06:15;;;;;;;1.60;1.50;;;;;;;11.71;53.53;93656.81;5020903;28;20198;-61
2022/04/08 00:08:41;;;;;;;2.65;1.52;;;;;;;11.84;52.42;93656.06;5014666;28;20233;-61
2022/04/08 00:11:07;;;;;;;1.45;1.20;;;;;;;11.89;51.68;93653.69;4996071;28;20675;-61
2022/04/08 00:13:32;;;;;;;2.47;1.73;;;;;;;11.88;51.33;93659.97;5026115;28;20214;-61
2022/04/08 00:15:58;;;;;;;2.25;1.27;;;;;;;11.93;50.28;93667.31;5026200;28;20240;-61
2022/04/08 00:18:24;;;;;;;1.70;1.60;;;;;;;11.89;49.97;93670.34;5025776;28;20461;-61
2022/04/08 00:20:50;;;;;;;1.50;1.40;;;;;;;11.85;50.48;93669.03;5025047;28;20216;-61
2022/04/08 00:23:16;;;;;;;2.17;1.50;;;;;;;11.79;51.08;93663.75;5012674;28;20233;-60
2022/04/08 00:25:41;;;;;;;2.15;1.63;;;;;;;11.86;50.51;93667.25;5025393;28;20221;-60
2022/04/08 00:28:07;;;;;;;1.45;1.35;;;;;;;11.83;50.64;93659.72;5034465;28;20225;-60
2022/04/08 00:30:32;;;;;;;3.67;1.50;;;;;;;11.78;50.83;93675.25;5038044;28;20301;-61
2022/04/08 00:32:58;;;;;;;1.33;1.23;;;;;;;11.76;51.13;93674.63;5022280;28;20221;-61
2022/04/08 00:35:25;;;;;;;2.58;1.42;;;;;;;11.79;51.39;93680.34;5033292;28;20225;-61
2022/04/08 00:37:51;;;;;;;2.42;1.30;;;;;;;11.80;50.87;93678.53;5036361;28;20225;-60
2022/04/08 00:40:17;;;;;;;3.28;1.60;;;;;;;11.78;50.68;93683.97;5033368;28;20299;-61
2022/04/08 00:42:44;;;;;;;1.70;1.40;;;;;;;11.74;51.21;93693.28;5033361;28;20215;-60
2022/04/08 00:45:10;;;;;;;1.52;1.42;;;;;;;11.82;50.80;93690.50;5017076;28;20198;-60
2022/04/08 00:47:37;;;;;;;1.60;1.50;;;;;;;11.81;49.96;93693.31;5041835;28;20197;-61
2022/04/08 00:50:07;;;;;;;2.25;1.40;;;;;;;11.81;50.18;93691.50;5031171;28;20249;-61
2022/04/08 00:52:33;;;;;;;1.92;1.52;;;;;;;11.75;50.40;93696.72;5038246;28;20649;-61
2022/04/08 00:55:03;;;;;;;1.52;1.35;;;;;;;11.72;50.24;93681.31;5031427;28;20217;-60
2022/04/08 00:57:29;;;;;;;2.53;1.30;;;;;;;11.65;50.22;93687.34;5032596;28;20296;-60
2022/04/08 00:59:55;;;;;;;1.98;1.40;;;;;;;11.68;49.96;93699.28;5033442;28;20271;-61
2022/04/08 01:02:21;;;;;;;1.50;1.40;;;;;;;11.73;50.24;93689.00;5044729;28;20221;-61
2022/04/08 01:04:47;;;;;;;1.70;1.60;;;;;;;11.70;49.93;93687.56;5033708;28;20308;-60
2022/04/08 01:07:13;;;;;;;2.20;1.45;;;;;;;11.61;50.16;93691.34;5029899;28;20363;-61
2022/04/08 01:09:38;;;;;;;1.90;1.55;;;;;;;11.57;50.21;93684.81;5034440;28;20224;-60
2022/04/08 01:12:04;;;;;;;2.17;1.50;;;;;;;11.63;49.99;93697.25;5036674;28;20214;-60
2022/04/08 01:14:30;;;;;;;1.47;1.37;;;;;;;11.66;49.64;93683.69;5036345;28;20214;-60
2022/04/08 01:16:55;;;;;;;2.08;1.40;;;;;;;11.63;49.79;93688.53;5032623;28;20242;-60
2022/04/08 01:19:21;;;;;;;2.75;1.40;;;;;;;11.64;49.76;93704.13;5035294;28;20249;-60
2022/04/08 01:21:46;;;;;;;1.42;1.33;;;;;;;11.67;49.87;93685.31;5042548;28;20222;-61
2022/04/08 01:24:14;;;;;;;2.63;1.77;;;;;;;11.65;49.85;93702.31;5042550;28;20229;-60
2022/04/08 01:26:41;;;;;;;3.50;1.48;;;;;;;11.60;49.75;93702.06;5033690;28;20194;-60
2022/04/08 01:29:07;;;;;;;1.50;1.40;;;;;;;11.66;49.02;93722.38;5043441;28;20225;-61
2022/04/08 01:31:33;;;;;;;1.60;1.50;;;;;;;11.67;49.21;93708.19;5039179;28;20512;-61
2022/04/08 01:33:58;;;;;;;2.13;1.33;;;;;;;11.70;48.22;93706.00;5028974;28;20242;-60
2022/04/08 01:36:23;;;;;;;1.60;1.50;;;;;;;11.72;48.54;93708.44;5026260;28;20218;-61
2022/04/08 01:38:49;;;;;;;1.80;1.30;;;;;;;11.73;48.28;93711.88;5046494;28;20209;-61
2022/04/08 01:41:18;;;;;;;1.50;1.40;;;;;;;11.65;48.63;93704.94;5038327;28;20209;-61
2022/04/08 01:43:44;;;;;;;1.47;1.37;;;;;;;11.65;48.68;93707.56;5037433;28;20222;-61
2022/04/08 01:46:10;;;;;;;1.77;1.30;;;;;;;11.64;48.36;93701.50;5030919;28;20337;-61
2022/04/08 01:48:35;;;;;;;2.20;1.50;;;;;;;11.51;48.74;93697.94;5041655;28;20713;-61
2022/04/08 01:51:00;;;;;;;1.83;1.50;;;;;;;11.61;48.84;93722.13;5035796;28;20206;-61
2022/04/08 01:53:26;;;;;;;1.47;1.37;;;;;;;11.69;47.79;93698.31;5043443;28;20229;-60
2022/04/08 01:55:51;;;;;;;1.33;1.23;;;;;;;11.64;48.69;93704.13;5024755;28;20297;-60
2022/04/08 01:58:17;;;;;;;1.40;1.30;;;;;;;11.62;49.22;93710.59;5031394;28;20317;-61
2022/04/08 02:00:42;;;;;;;1.50;1.40;;;;;;;11.55;49.15;93688.69;5035503;28;20248;-60
2022/04/08 02:03:09;;;;;;;1.90;1.50;;;;;;;11.60;48.32;93715.22;5037308;28;20209;-61
2022/04/08 02:05:34;;;;;;;1.50;1.40;;;;;;;11.58;48.44;93704.09;5037845;28;20267;-62
2022/04/08 02:08:00;;;;;;;1.85;1.70;;;;;;;11.50;48.84;93715.56;5033769;28;20229;-63
2022/04/08 02:10:26;;;;;;;2.42;1.60;;;;;;;11.49;48.84;93713.91;5038394;28;20222;-61
2022/04/08 02:12:52;;;;;;;1.40;1.30;;;;;;;11.48;48.98;93721.00;5037654;28;20236;-61
2022/04/08 02:15:25;;;;;;;1.80;1.70;;;;;;;11.42;49.42;93713.88;5040151;28;20701;-62
2022/04/08 02:17:51;;;;;;;2.83;1.40;;;;;;;11.46;50.03;93711.66;5037976;28;20692;-62
2022/04/08 02:20:17;;;;;;;1.53;1.43;;;;;;;11.38;50.67;93719.69;5034215;28;20234;-61
2022/04/08 02:22:43;;;;;;;2.00;1.50;;;;;;;11.35;50.42;93712.19;5020823;28;20244;-62
2022/04/08 02:25:11;;;;;;;2.78;1.55;;;;;;;11.35;50.32;93725.34;5019992;28;20231;-61
2022/04/08 02:27:36;;;;;;;1.40;1.30;;;;;;;11.39;49.76;93716.88;5003830;28;20225;-62
2022/04/08 02:30:02;;;;;;;2.63;1.60;;;;;;;11.39;48.91;93710.81;5040444;28;20678;-63
2022/04/08 02:32:28;;;;;;;1.92;1.70;;;;;;;11.38;48.66;93730.22;5038721;28;20230;-61
2022/04/08 02:34:54;;;;;;;1.42;1.33;;;;;;;11.35;48.72;93723.50;5035490;28;20226;-61
2022/04/08 02:37:20;;;;;;;1.67;1.53;;;;;;;11.31;49.29;93730.16;5033195;28;20234;-61
2022/04/08 02:39:45;;;;;;;1.75;1.40;;;;;;;11.36;49.20;93737.47;5029688;28;20280;-61
2022/04/08 02:42:11;;;;;;;3.03;1.47;;;;;;;11.33;49.36;93759.72;5017907;28;20209;-61
2022/04/08 02:44:36;;;;;;;1.73;1.60;;;;;;;11.39;48.47;93768.72;5021267;28;20214;-61
2022/04/08 02:47:02;;;;;;;2.33;1.33;;;;;;;11.34;48.54;93755.31;5029773;28;20264;-61
2022/04/08 02:49:27;;;;;;;1.30;1.20;;;;;;;11.35;48.18;93759.56;5042273;28;20230;-61
2022/04/08 02:51:53;;;;;;;1.40;1.30;;;;;;;11.39;47.80;93750.28;5040360;28;20505;-62
2022/04/08 02:54:19;;;;;;;1.50;1.40;;;;;;;11.39;47.97;93766.88;5037603;28;20213;-61
2022/04/08 02:56:44;;;;;;;2.33;1.40;;;;;;;11.41;47.94;93762.25;5019353;28;20280;-61
2022/04/08 02:59:10;;;;;;;2.45;1.38;;;;;;;11.36;47.21;93761.16;5013057;28;20275;-61
2022/04/08 03:01:36;;;;;;;1.23;1.20;;;;;;;11.44;47.25;93772.41;5014939;28;20242;-61
2022/04/08 03:04:02;;;;;;;3.38;1.50;;;;;;;11.47;47.38;93779.94;5025514;28;20233;-61
2022/04/08 03:06:27;;;;;;;1.73;1.40;;;;;;;11.47;47.08;93777.28;5040346;28;20229;-61
2022/04/08 03:08:53;;;;;;;1.70;1.17;;;;;;;11.48;46.80;93776.28;5034493;28;20198;-61
2022/04/08 03:11:18;;;;;;;1.30;1.20;;;;;;;11.46;46.60;93780.91;5032895;28;20214;-61
2022/04/08 03:13:44;;;;;;;1.77;1.17;;;;;;;11.47;46.71;93779.13;5031210;28;20226;-61
2022/04/08 03:16:10;;;;;;;1.47;1.37;;;;;;;11.46;46.83;93782.72;5035337;28;20253;-62
2022/04/08 03:18:35;;;;;;;1.20;1.02;;;;;;;11.47;46.56;93784.38;5035150;28;20229;-63
2022/04/08 03:21:00;;;;;;;1.10;0.90;;;;;;;11.46;46.72;93790.63;5037522;28;20213;-61
2022/04/08 03:23:26;;;;;;;3.20;1.47;;;;;;;11.48;46.72;93794.72;5042559;28;20225;-61
2022/04/08 03:25:51;;;;;;;1.52;1.17;;;;;;;11.48;46.17;93794.72;5038063;28;20276;-61
2022/04/08 03:28:17;;;;;;;1.25;1.15;;;;;;;11.48;46.21;93799.97;5037737;28;20597;-61
2022/04/08 03:30:42;;;;;;;1.58;1.38;;;;;;;11.48;45.94;93810.50;5038895;28;20230;-61
2022/04/08 03:33:08;;;;;;;1.30;1.20;;;;;;;11.44;46.09;93817.16;5034704;28;20306;-61
2022/04/08 03:35:34;;;;;;;2.10;1.20;;;;;;;11.45;46.22;93826.69;5034618;28;20226;-62
2022/04/08 03:38:00;;;;;;;2.47;1.10;;;;;;;11.48;46.45;93836.00;5032358;28;20253;-61
2022/04/08 03:40:25;;;;;;;1.83;1.20;;;;;;;11.39;46.80;93834.50;5043714;28;20226;-62
2022/04/08 03:42:51;;;;;;;1.10;0.93;;;;;;;11.38;46.65;93835.50;5035066;28;20252;-61
2022/04/08 03:45:16;;;;;;;1.20;1.03;;;;;;;11.37;46.97;93857.56;5034135;28;20271;-61
2022/04/08 03:47:41;;;;;;;1.20;1.10;;;;;;;11.25;47.16;93852.78;5039302;28;20688;-61
2022/04/08 03:50:07;;;;;;;1.37;1.10;;;;;;;11.23;47.68;93859.22;5036332;28;20308;-61
2022/04/08 03:52:32;;;;;;;0.98;0.98;;;;;;;11.21;47.95;93854.13;5038185;28;21455;-62
2022/04/08 03:54:59;;;;;;;1.00;1.00;;;;;;;11.22;47.85;93858.38;5039992;28;20241;-61
2022/04/08 03:57:25;;;;;;;1.55;1.05;;;;;;;11.27;47.81;93861.28;5035424;28;20236;-61
2022/04/08 03:59:51;;;;;;;1.27;1.10;;;;;;;11.20;47.86;93860.41;5036490;28;20207;-61
2022/04/08 04:02:16;;;;;;;2.50;1.25;;;;;;;11.18;48.08;93866.84;5037992;28;20691;-61
2022/04/08 04:04:42;;;;;;;3.23;1.23;;;;;;;11.22;47.63;93868.09;5036088;28;20252;-61
2022/04/08 04:07:08;;;;;;;1.17;0.90;;;;;;;11.19;47.67;93868.47;5038171;28;20251;-61
2022/04/08 04:09:33;;;;;;;1.33;1.10;;;;;;;11.36;46.94;93869.06;5033747;28;20301;-61
2022/04/08 04:11:59;;;;;;;1.43;1.10;;;;;;;11.36;46.28;93871.69;5036895;28;20205;-61
2022/04/08 04:14:25;;;;;;;1.97;1.20;;;;;;;11.30;46.63;93875.06;5038782;28;20784;-61
2022/04/08 04:16:50;;;;;;;1.40;1.07;;;;;;;11.38;46.22;93874.97;5029280;28;20602;-61
2022/04/08 04:19:17;;;;;;;1.63;1.10;;;;;;;11.43;45.77;93883.94;5024599;28;20230;-62
2022/04/08 04:21:42;;;;;;;2.33;1.17;;;;;;;11.52;46.29;93904.91;5033988;28;20279;-60
2022/04/08 04:24:08;;;;;;;1.70;1.10;;;;;;;11.55;45.67;93908.00;5020704;28;20210;-60
2022/04/08 04:26:33;;;;;;;1.67;1.20;;;;;;;11.53;45.91;93910.00;5033343;28;20198;-62
2022/04/08 04:28:58;;;;;;;1.27;1.17;;;;;;;11.51;45.64;93908.53;5036398;28;20233;-62
2022/04/08 04:31:24;;;;;;;1.37;1.20;;;;;;;11.61;45.09;93899.34;5033289;28;20287;-62
2022/04/08 04:33:49;;;;;;;1.40;1.30;;;;;;;11.57;45.56;93920.97;5042468;28;20244;-61
2022/04/08 04:36:15;;;;;;;1.63;1.40;;;;;;;11.62;45.07;93922.03;5033372;28;20252;-60
2022/04/08 04:38:40;;;;;;;2.90;1.30;;;;;;;11.51;45.83;93917.25;5033678;28;20194;-62
2022/04/08 04:41:06;;;;;;;1.52;1.10;;;;;;;11.64;44.97;93909.50;5037429;28;20221;-61
2022/04/08 04:43:31;;;;;;;2.83;1.60;;;;;;;11.69;44.63;93917.66;5034525;28;20236;-61
2022/04/08 04:45:57;;;;;;;1.70;1.58;;;;;;;11.79;44.67;93917.38;5038247;28;20228;-61
2022/04/08 04:48:22;;;;;;;2.37;1.50;;;;;;;11.67;45.08;93918.84;5042240;28;20894;-61
2022/04/08 04:50:48;;;;;;;2.90;1.57;;;;;;;11.74;44.72;93913.69;5038231;28;20198;-61
2022/04/08 04:53:14;;;;;;;2.38;1.30;;;;;;;11.79;44.26;93930.53;5034738;28;20218;-60
2022/04/08 04:55:39;;;;;;;2.13;1.40;;;;;;;11.74;44.71;93946.09;5035167;28;20221;-62
2022/04/08 04:58:05;;;;;;;1.67;1.53;;;;;;;11.84;44.43;93954.50;5038829;28;20256;-61
2022/04/08 05:00:31;;;;;;;2.57;1.33;;;;;;;11.77;44.62;93956.25;5040906;28;20561;-62
2022/04/08 05:02:56;;;;;;;2.13;1.60;;;;;;;11.89;43.89;93961.88;5037085;28;20205;-63
2022/04/08 05:05:22;;;;;;;1.97;1.57;;;;;;;11.92;44.07;93958.84;5041714;28;20233;-62
2022/04/08 05:07:47;;;;;;;2.60;1.60;;;;;;;11.99;44.21;93977.41;5041488;28;20233;-62
2022/04/08 05:10:13;;;;;;;4.43;3.17;;;;;;;11.86;47.68;93978.06;5042657;28;20240;-62
2022/04/08 05:12:38;;;;;;;4.93;3.10;;;;;;;11.69;49.92;93985.31;5038456;28;20217;-60
2022/04/08 05:15:06;;;;;;;2.40;2.15;;;;;;;11.80;46.52;93974.31;5040283;28;20237;-60
2022/04/08 05:17:38;;;;;;;2.10;1.88;;;;;;;11.88;45.80;93979.50;5036264;28;20248;-60
2022/04/08 05:20:06;;;;;;;4.20;2.85;;;;;;;11.87;48.56;93995.50;5033857;28;20259;-60
2022/04/08 05:22:33;;;;;;;5.27;3.30;;;;;;;11.83;49.21;93989.75;5036578;28;20316;-60
2022/04/08 05:24:59;;;;;;;5.43;3.70;;;;;;;11.72;51.40;93999.94;5031352;28;20295;-59
2022/04/08 05:27:26;;;;;;;7.95;3.70;;;;;;;11.78;51.68;94010.53;5015854;28;20235;-60
2022/04/08 05:29:51;;;;;;;3.78;3.08;;;;;;;11.73;51.25;94012.91;5016841;28;20208;-60
2022/04/08 05:32:17;;;;;;;6.70;3.30;;;;;;;11.75;51.32;94010.91;5009740;28;20257;-60
2022/04/08 05:34:42;;;;;;;11.68;3.53;;;;;;;11.81;51.70;94010.16;5019172;28;20230;-60
2022/04/08 05:37:08;;;;;;;6.85;4.00;;;;;;;11.73;52.21;94020.81;5022949;28;20313;-60
2022/04/08 05:39:33;;;;;;;4.17;2.57;;;;;;;11.82;48.05;93996.03;5037369;28;20234;-60
2022/04/08 05:41:59;;;;;;;6.53;3.97;;;;;;;11.89;51.04;94012.75;5039468;28;20295;-63
2022/04/08 05:44:24;;;;;;;8.38;4.28;;;;;;;11.77;52.54;94021.28;5036615;28;20232;-61
2022/04/08 05:46:49;;;;;;;6.33;4.10;;;;;;;11.79;52.79;94022.72;5034843;28;20234;-60
2022/04/08 05:49:15;;;;;;;4.97;3.45;;;;;;;11.83;53.39;94023.16;5035112;28;20226;-60
2022/04/08 05:51:40;;;;;;;4.43;3.20;;;;;;;11.65;54.01;94034.06;5035274;28;20228;-60
2022/04/08 05:54:06;;;;;;;4.40;2.75;;;;;;;11.88;49.00;94023.47;5037963;28;20298;-59
2022/04/08 05:56:31;;;;;;;6.07;3.50;;;;;;;11.97;51.07;94029.44;5042625;28;20205;-59
2022/04/08 05:58:57;;;;;;;4.65;3.45;;;;;;;11.93;52.48;94030.81;5037028;28;20627;-60
2022/04/08 06:01:23;;;;;;;5.57;3.97;;;;;;;11.93;52.91;94039.53;5038715;28;20228;-60
2022/04/08 06:03:48;;;;;;;2.70;2.50;;;;;;;12.11;47.18;94020.72;5037599;28;20232;-60
2022/04/08 06:06:14;;;;;;;2.75;2.22;;;;;;;12.32;45.35;94028.66;5030152;28;20248;-60
2022/04/08 06:08:40;;;;;;;4.65;2.63;;;;;;;12.49;45.33;94026.59;5034091;28;20198;-60
2022/04/08 06:11:05;;;;;;;1.73;1.63;;;;;;;12.70;40.86;94040.78;5036228;28;20229;-60
2022/04/08 06:13:30;;;;;;;2.30;1.58;;;;;;;12.71;41.41;94030.03;5036255;28;20217;-59
2022/04/08 06:15:56;;;;;;;3.13;2.58;;;;;;;12.84;42.68;94023.25;5035643;28;20231;-62
2022/04/08 06:18:22;;;;;;;4.03;2.80;;;;;;;12.84;45.94;94037.25;5040357;28;20213;-61
2022/04/08 06:20:47;;;;;;;3.30;2.33;;;;;;;12.87;44.65;94020.25;5028502;28;20201;-63
2022/04/08 06:23:13;;;;;;;3.97;2.70;;;;;;;12.88;46.52;94029.78;5036099;28;20226;-59
2022/04/08 06:25:38;;;;;;;2.95;2.65;;;;;;;12.86;47.16;94032.63;5032379;28;20217;-61
2022/04/08 06:28:06;;;;;;;2.85;2.40;;;;;;;12.93;42.86;94030.84;5031512;28;20271;-61
2022/04/08 06:30:33;;;;;;;5.22;2.00;;;;;;;13.20;41.44;94050.38;5031307;28;20218;-61
2022/04/08 06:32:59;;;;;;;6.07;3.10;;;;;;;13.18;46.78;94051.56;5039914;28;20623;-61
2022/04/08 06:35:24;;;;;;;8.45;4.03;;;;;;;13.00;49.84;94052.00;5036263;28;20297;-62
2022/04/08 06:37:50;;;;;;;7.10;3.92;;;;;;;12.90;51.76;94048.88;5035010;28;20276;-61
2022/04/08 06:40:15;;;;;;;5.50;3.97;;;;;;;12.79;52.93;94048.38;5034644;28;20308;-62
2022/04/08 06:42:41;;;;;;;5.47;3.78;;;;;;;12.82;52.60;94044.53;5033140;28;20217;-60
2022/04/08 06:45:08;;;;;;;6.68;3.78;;;;;;;12.92;52.58;94057.41;5032056;28;20290;-60
2022/04/08 06:47:33;;;;;;;8.65;4.25;;;;;;;12.96;52.51;94056.88;5034206;28;20198;-61
2022/04/08 06:49:59;;;;;;;5.50;2.95;;;;;;;12.93;48.84;94044.03;5031267;28;20330;-60
2022/04/08 06:52:24;;;;;;;4.43;2.50;;;;;;;13.14;44.33;94053.75;5023151;28;20230;-61
2022/04/08 06:54:50;;;;;;;2.17;1.67;;;;;;;13.37;39.71;94053.56;5016731;28;20221;-60
2022/04/08 06:57:15;;;;;;;1.67;1.58;;;;;;;13.49;38.54;94042.44;5033133;28;20271;-61
2022/04/08 06:59:41;;;;;;;3.23;1.70;;;;;;;13.62;38.09;94072.41;5040160;28;20209;-61
2022/04/08 07:02:08;;;;;;;3.10;1.48;;;;;;;13.69;37.49;94048.69;5036967;28;20238;-60
2022/04/08 07:04:35;;;;;;;2.38;1.65;;;;;;;13.67;37.31;94055.97;5020961;28;20261;-60
2022/04/08 07:07:01;;;;;;;3.67;1.85;;;;;;;13.69;37.26;94051.31;5021574;28;20235;-60
2022/04/08 07:09:26;;;;;;;2.38;1.50;;;;;;;13.79;37.33;94048.31;5020580;28;20233;-61
2022/04/08 07:11:52;;;;;;;1.90;1.70;;;;;;;13.86;37.82;94057.09;5019694;28;20210;-62
2022/04/08 07:14:17;;;;;;;1.60;1.50;;;;;;;13.98;37.28;94063.47;5014748;28;20227;-62
2022/04/08 07:16:46;;;;;;;2.10;1.90;;;;;;;14.03;37.57;94069.00;5013278;28;20606;-61
2022/04/08 07:19:11;;;;;;;2.30;1.58;;;;;;;14.02;36.68;94077.09;5019720;28;20260;-60
2022/04/08 07:21:37;;;;;;;2.35;1.52;;;;;;;14.07;36.43;94075.50;5011283;28;20230;-60
2022/04/08 07:24:03;;;;;;;2.00;1.60;;;;;;;14.16;36.74;94085.91;5014919;28;20701;-61
2022/04/08 07:26:28;;;;;;;3.80;1.40;;;;;;;14.19;36.89;94085.50;5013089;28;20219;-60
2022/04/08 07:28:55;;;;;;;2.40;1.40;;;;;;;14.17;37.00;94088.38;5017325;28;20241;-62
2022/04/08 07:31:21;;;;;;;2.53;1.63;;;;;;;14.19;37.53;94091.63;5018887;28;20230;-62
2022/04/08 07:33:46;;;;;;;2.03;1.48;;;;;;;14.37;37.29;94092.91;5014815;28;20222;-60
2022/04/08 07:36:12;;;;;;;2.67;1.67;;;;;;;14.40;37.86;94103.09;5011860;28;20202;-62
2022/04/08 07:38:40;;;;;;;3.22;1.63;;;;;;;14.41;37.47;94102.91;5017442;28;20692;-62
2022/04/08 07:41:06;;;;;;;1.65;1.30;;;;;;;14.56;37.45;94113.38;5017969;28;20234;-63
2022/04/08 07:43:31;;;;;;;2.20;1.80;;;;;;;14.54;36.85;94105.66;5013374;28;20240;-64
2022/04/08 07:45:57;;;;;;;3.30;1.98;;;;;;;14.64;36.53;94101.78;5013589;28;20221;-62
2022/04/08 07:48:22;;;;;;;2.15;1.42;;;;;;;14.65;36.46;94111.34;5011254;28;20214;-60
2022/04/08 07:50:48;;;;;;;2.10;1.88;;;;;;;14.64;36.72;94109.72;5012480;28;20202;-62
2022/04/08 07:53:13;;;;;;;2.15;1.80;;;;;;;14.60;37.05;94111.16;5009200;28;20238;-59
2022/04/08 07:55:39;;;;;;;3.75;1.60;;;;;;;14.69;38.41;94109.97;5014058;28;20283;-60
2022/04/08 07:58:05;;;;;;;2.13;1.83;;;;;;;14.82;36.78;94125.88;5014395;28;20234;-60
2022/04/08 08:00:34;;;;;;;3.95;1.88;;;;;;;14.74;36.53;94124.22;5023084;28;20226;-61
2022/04/08 08:03:00;;;;;;;3.33;1.70;;;;;;;14.80;36.30;94122.59;5019707;28;20266;-61
2022/04/08 08:05:26;;;;;;;3.05;1.45;;;;;;;14.89;36.28;94121.41;5033038;28;20225;-61
2022/04/08 08:07:53;;;;;;;2.13;1.50;;;;;;;14.93;36.73;94133.22;5016344;28;20229;-61
2022/04/08 08:10:28;;;;;;;2.83;1.50;;;;;;;14.90;36.04;94119.59;5024333;28;20596;-60
2022/04/08 08:12:55;;;;;;;2.03;1.50;;;;;;;14.92;36.50;94118.38;5009958;28;20216;-73
2022/04/08 08:15:22;;;;;;;4.88;1.92;;;;;;;14.94;36.33;94121.63;5024964;28;20241;-64
2022/04/08 08:17:49;;;;;;;1.92;1.30;;;;;;;14.86;35.73;94127.13;5039872;28;20197;-64
2022/04/08 08:20:20;;;;;;;2.45;1.25;;;;;;;14.97;35.77;94120.41;5035915;28;20214;-64
2022/04/08 08:22:46;;;;;;;2.10;1.70;;;;;;;14.85;36.15;94119.38;5033520;28;20230;-64
2022/04/08 08:25:13;;;;;;;3.40;1.52;;;;;;;14.96;35.68;94121.41;5029194;28;20626;-70
2022/04/08 08:27:42;;;;;;;3.10;1.60;;;;;;;15.07;35.90;94130.59;5032046;28;20221;-67
2022/04/08 08:30:10;;;;;;;2.55;1.40;;;;;;;15.19;35.15;94127.16;5031544;28;20236;-61
2022/04/08 08:32:37;;;;;;;3.00;1.30;;;;;;;15.22;35.39;94132.06;5033901;28;20304;-73
2022/04/08 08:35:07;;;;;;;2.17;1.35;;;;;;;15.24;35.91;94126.56;5023398;28;20222;-66
2022/04/08 08:37:33;;;;;;;2.20;1.70;;;;;;;15.29;35.91;94132.09;5024378;28;20218;-65
2022/04/08 08:39:58;;;;;;;5.30;1.80;;;;;;;15.42;36.13;94128.59;5013178;28;20238;-64
2022/04/08 08:42:24;;;;;;;2.63;1.35;;;;;;;15.51;34.92;94130.06;5021907;28;20216;-64
2022/04/08 08:44:51;;;;;;;2.25;1.50;;;;;;;15.44;35.85;94140.63;5031510;28;20254;-69
2022/04/08 08:47:48;;;;;;;;;;;;;;;;;;;;;
2022/04/08 08:50:06;;;;;;;2.08;1.40;;;;;;;15.55;34.64;94172.84;5030070;28;20217;-67
2022/04/08 08:52:33;;;;;;;2.17;1.52;;;;;;;15.53;35.19;94158.97;5036949;28;20257;-71
2022/04/08 08:55:02;;;;;;;3.30;1.80;;;;;;;15.52;35.30;94149.41;5033508;28;20223;-64
2022/04/08 08:57:27;;;;;;;2.22;1.27;;;;;;;15.60;34.99;94155.31;5022765;28;20255;-73
2022/04/08 09:00:06;;;;;;;1.67;1.58;;;;;;;15.64;35.31;94148.59;5039853;28;20214;-60
2022/04/08 09:02:31;;;;;;;3.83;1.52;;;;;;;15.62;35.54;94145.34;5010264;28;20389;-58
2022/04/08 09:04:57;;;;;;;2.92;1.40;;;;;;;15.62;34.67;94158.59;5006136;28;20313;-62
2022/04/08 09:07:22;;;;;;;1.88;1.55;;;;;;;15.60;34.97;94143.91;5017914;28;20218;-65
2022/04/08 09:09:52;;;;;;;1.40;1.20;;;;;;;15.78;35.66;94148.63;5023358;28;20218;-65
2022/04/08 09:12:19;;;;;;;4.03;1.48;;;;;;;15.81;35.06;94149.03;5016066;28;20254;-60
2022/04/08 09:14:49;;;;;;;2.70;1.38;;;;;;;15.85;35.37;94146.75;5017683;28;20194;-63
2022/04/08 09:17:19;;;;;;;1.58;1.27;;;;;;;15.94;34.45;94137.59;5008561;28;20226;-71
2022/04/08 09:19:48;;;;;;;2.25;1.20;;;;;;;15.98;34.66;94138.00;5010434;28;20234;-66
2022/04/08 09:22:14;;;;;;;2.45;1.10;;;;;;;16.04;34.04;94132.69;5006494;28;20657;-63
2022/04/08 09:24:40;;;;;;;4.18;1.63;;;;;;;16.16;34.13;94132.84;5006324;28;20214;-63
2022/04/08 09:27:05;;;;;;;4.60;1.65;;;;;;;16.24;34.84;94124.69;5007767;28;20829;-64
2022/04/08 09:29:31;;;;;;;4.38;1.42;;;;;;;16.34;34.11;94131.41;5004824;28;20300;-62
2022/04/08 09:31:59;;;;;;;1.55;1.30;;;;;;;16.32;34.14;94118.34;5007802;28;20672;-60
2022/04/08 09:34:25;;;;;;;4.40;1.45;;;;;;;16.47;34.33;94123.41;4994644;28;20254;-64
2022/04/08 09:36:51;;;;;;;2.63;1.63;;;;;;;16.69;34.52;94116.75;5015641;28;20245;-60
2022/04/08 09:39:17;;;;;;;2.13;1.40;;;;;;;16.79;33.64;94126.97;5011442;28;20209;-60
2022/04/08 09:41:45;;;;;;;2.70;1.75;;;;;;;16.85;34.24;94112.84;5015420;28;20202;-60
2022/04/08 09:44:12;;;;;;;4.05;1.80;;;;;;;16.95;35.39;94112.38;5017537;28;20325;-63
2022/04/08 09:46:38;;;;;;;2.05;1.63;;;;;;;17.07;34.86;94121.28;5018740;28;20222;-59
2022/04/08 09:49:05;;;;;;;4.65;1.85;;;;;;;17.16;35.58;94117.38;5003501;28;20230;-62
2022/04/08 09:51:39;;;;;;;1.92;1.45;;;;;;;17.22;34.53;94120.19;5021057;28;20217;-68
2022/04/08 09:54:09;;;;;;;2.53;1.70;;;;;;;17.25;35.89;94119.75;5040599;28;20275;-72
2022/04/08 09:56:36;;;;;;;3.35;1.60;;;;;;;17.19;34.81;94124.09;5013117;28;20223;-68
2022/04/08 09:59:14;;;;;;;1.90;1.70;;;;;;;17.29;34.94;94132.38;5014862;28;20257;-66
2022/04/08 10:01:51;;;;;;;2.22;1.67;;;;;;;17.34;34.82;94137.06;5014911;28;20236;-65
2022/04/08 10:04:19;;;;;;;1.85;1.70;;;;;;;17.30;35.93;94136.69;5014386;28;20612;-66
2022/04/08 10:06:45;;;;;;;3.08;1.30;;;;;;;17.40;36.09;94129.06;5011271;28;20226;-63
2022/04/08 10:09:13;;;;;;;3.38;1.80;;;;;;;17.54;35.41;94123.66;5014869;28;20222;-63
2022/04/08 10:12:06;;;;;;;5.63;1.88;;;;;;;17.59;35.16;94124.63;5010537;28;20194;-67
2022/04/08 10:15:07;;;;;;;4.28;1.60;;;;;;;17.57;35.81;94124.00;5030375;28;20753;-67
2022/04/08 10:17:33;;;;;;;2.08;1.50;;;;;;;17.80;34.17;94118.13;5026537;28;20228;-63
2022/04/08 10:20:19;;;;;;;4.20;1.77;;;;;;;17.92;35.16;94112.91;5037723;28;20287;-64
2022/04/08 10:22:45;;;;;;;3.00;1.70;;;;;;;18.20;35.59;94115.09;5032780;28;20480;-66
2022/04/08 10:25:18;;;;;;;2.63;1.67;;;;;;;18.29;35.89;94104.97;5040765;28;20230;-64
2022/04/08 10:27:46;;;;;;;2.83;1.70;;;;;;;18.49;35.42;94105.53;5038179;28;20228;-61
2022/04/08 10:30:20;;;;;;;1.77;1.55;;;;;;;18.68;35.51;94111.69;5037701;28;20225;-61
2022/04/08 10:32:47;;;;;;;1.80;1.48;;;;;;;18.61;35.02;94107.47;5034528;28;20206;-68
2022/04/08 10:35:17;;;;;;;2.13;1.50;;;;;;;18.69;33.17;94107.16;5023046;28;20223;-69
2022/04/08 10:37:53;;;;;;;1.73;1.20;;;;;;;18.68;33.00;94102.88;5020426;28;20322;-67
2022/04/08 10:40:20;;;;;;;2.08;1.50;;;;;;;18.98;33.94;94096.78;5020998;28;20265;-68
2022/04/08 10:43:02;;;;;;;1.45;1.35;;;;;;;19.14;33.53;94107.63;5019084;28;20715;-65
2022/04/08 10:45:29;;;;;;;2.35;1.42;;;;;;;19.26;32.60;94098.84;5014427;28;20233;-71
2022/04/08 10:47:56;;;;;;;3.63;1.77;;;;;;;19.44;33.76;94092.63;5013861;28;20206;-68
2022/04/08 10:50:33;;;;;;;2.85;1.55;;;;;;;19.66;34.33;94090.22;5020175;28;20713;-69
2022/04/08 10:53:24;;;;;;;2.28;1.65;;;;;;;19.89;33.49;94086.78;5012246;28;20234;-69
2022/04/08 10:56:10;;;;;;;3.25;1.67;;;;;;;19.99;32.84;94082.50;5009663;28;20507;-69
2022/04/08 10:58:43;;;;;;;3.80;1.60;;;;;;;19.98;33.67;94077.41;4992778;28;20289;-64
2022/04/08 11:01:14;;;;;;;3.08;1.60;;;;;;;20.12;32.38;94062.75;4979080;28;20507;-70
2022/04/08 11:03:45;;;;;;;2.78;1.88;;;;;;;20.24;31.98;94066.22;4980154;28;20384;-69
2022/04/08 11:06:13;;;;;;;4.18;1.92;;;;;;;20.31;30.62;94081.31;4990607;28;20218;-67
2022/04/08 11:08:38;;;;;;;3.38;1.50;;;;;;;20.34;30.96;94072.81;4994079;28;20569;-65
2022/04/08 11:11:04;;;;;;;2.20;1.30;;;;;;;20.38;29.96;94079.31;5015267;28;20222;-68
2022/04/08 11:13:29;;;;;;;3.15;1.77;;;;;;;20.49;30.52;94075.81;4989249;28;20238;-68
2022/04/08 11:15:55;;;;;;;3.58;1.92;;;;;;;20.70;29.97;94077.88;4995586;28;21240;-68
2022/04/08 11:18:24;;;;;;;3.40;1.70;;;;;;;20.98;29.45;94081.59;4984351;28;20223;-67
2022/04/08 11:20:49;;;;;;;2.92;1.50;;;;;;;21.09;28.51;94077.25;4983580;28;20210;-67
2022/04/08 11:23:28;;;;;;;2.05;1.27;;;;;;;21.04;27.76;94077.97;4999973;28;20229;-67
2022/04/08 11:25:54;;;;;;;1.20;1.10;;;;;;;21.23;25.52;94069.75;4995699;28;20238;-65
2022/04/08 11:28:22;;;;;;;2.08;0.93;;;;;;;21.20;24.25;94075.56;4986118;28;20230;-64
2022/04/08 11:30:55;;;;;;;1.20;1.10;;;;;;;21.14;24.53;94075.50;5005694;28;20310;-68
2022/04/08 11:33:20;;;;;;;1.52;1.15;;;;;;;21.16;23.08;94072.56;5016548;28;20630;-67